Seabourn Spirit — C6FR4 — position and weather

sailwx.info

Track history (hours):
 
Tides and Currents Weather Stations Pressure Air Temp Water Temp Dewpoint Dewpoint Depression Visibility Wind Speed Wind Dir Waves Ship Positions

Seabourn Spirit

Operator: Cunard Seabourn

Last reported at 2018-Apr-26 01:47 UTC. Time now 2018-Apr-26 19:10 UTC.
Position N 37°15' W 011°06'.

Length 133 m; draft 5.5 m.

Type: Ship. MMSI: 311083000.

Date/timePositionNaut miles runAvg speedWind from/ knotsBaromVisibWave heightAir tempDewpointWater temp
2018-Apr-26 01:47N 37°15' W 011°06'413.0
2018-Apr-26 01:31N 37°17' W 011°03'613.0
2018-Apr-26 01:01N 37°22' W 010°58'612.6
2018-Apr-26 00:31N 37°26' W 010°52'612.6
2018-Apr-26 00:00N 37°31' W 010°46'611.8
2018-Apr-25 23:30N 37°35' W 010°41'612.5
2018-Apr-25 23:00N 37°39' W 010°36'712.7
2018-Apr-25 22:28N 37°44' W 010°29'511.5
2018-Apr-25 22:00N 37°48' W 010°25'612.1
2018-Apr-25 21:31N 37°52' W 010°19'612.6
2018-Apr-25 21:00N 37°57' W 010°14'612.2
2018-Apr-25 20:31N 38°01' W 010°09'612.3
2018-Apr-25 20:01N 38°06' W 010°03'612.3
2018-Apr-25 19:30N 38°10' W 009°57'713.2
2018-Apr-25 19:00N 38°14' W 009°51'611.5
2018-Apr-25 18:30N 38°18' W 009°46'510.4
2018-Apr-25 18:00N 38°22' W 009°41'510.9
2018-Apr-25 17:31N 38°26' W 009°36'611.7
2018-Apr-25 17:01N 38°30' W 009°31'612.4
2018-Apr-25 16:30N 38°34' W 009°26'612.2
2018-Apr-25 16:00N 38°39' W 009°20'612.8
2018-Apr-25 15:30N 38°41' W 009°13'4 8.5
2018-Apr-25 14:59N 38°43' W 009°07'0 0.0
2018-Apr-25 14:29N 38°43' W 009°07'0 0.0
2018-Apr-25 13:59N 38°43' W 009°07'0 0.0
2018-Apr-25 13:29N 38°43' W 009°07'0 0.0
2018-Apr-25 12:55N 38°43' W 009°07'0 0.0
2018-Apr-25 12:29N 38°43' W 009°07'0 0.0
2018-Apr-25 11:59N 38°43' W 009°07'0 0.0
2018-Apr-25 11:29N 38°43' W 009°07'0 0.0
2018-Apr-25 10:58N 38°43' W 009°07'0 0.0
2018-Apr-25 10:29N 38°43' W 009°07'0 0.0
2018-Apr-25 09:59N 38°43' W 009°07'0 0.0
2018-Apr-25 09:28N 38°43' W 009°07'0 0.0
2018-Apr-25 08:58N 38°43' W 009°07'0 0.0
2018-Apr-25 08:29N 38°43' W 009°07'0 0.0
2018-Apr-25 07:59N 38°43' W 009°07'0 0.0
2018-Apr-25 07:29N 38°43' W 009°07'0 0.0
2018-Apr-25 06:59N 38°43' W 009°07'0 0.0
2018-Apr-25 06:28N 38°43' W 009°07'0 0.0
2018-Apr-25 05:59N 38°43' W 009°07'0 0.2
2018-Apr-25 05:30N 38°43' W 009°07'5 9.9
2018-Apr-25 05:00N 38°41' W 009°13'4 8.9
2018-Apr-25 04:30N 38°40' W 009°19'510.7
2018-Apr-25 04:00N 38°36' W 009°23'612.6
2018-Apr-25 03:30N 38°29' W 009°23'612.6
2018-Apr-25 03:00N 38°23' W 009°23'611.8
2018-Apr-25 02:30N 38°17' W 009°22'611.5
2018-Apr-25 02:00N 38°11' W 009°22'611.3
2018-Apr-25 01:30N 38°06' W 009°22'611.3
2018-Apr-25 01:00N 38°00' W 009°22'611.3
2018-Apr-25 00:30N 37°55' W 009°22'611.3
2018-Apr-25 00:00N 37°49' W 009°21'611.5
2018-Apr-24 23:30N 37°43' W 009°22'611.5
2018-Apr-24 23:01N 37°37' W 009°22'611.3
2018-Apr-24 22:31N 37°32' W 009°21'610.8
2018-Apr-24 22:00N 37°26' W 009°21'510.8
2018-Apr-24 21:30N 37°21' W 009°21'511.0
2018-Apr-24 21:00N 37°15' W 009°20'32 9.7
2018-Apr-24 17:42N 36°45' W 009°07'4 9.9
2018-Apr-24 17:17N 36°44' W 009°02'1710.8
2018-Apr-24 15:42N 36°54' W 008°45'711.8
2018-Apr-24 15:06N 36°59' W 008°38'111.9
2018-Apr-24 14:59N 37°00' W 008°37'511.5
2018-Apr-24 14:31N 37°04' W 008°32'4 6.7
2018-Apr-24 13:59N 37°08' W 008°32'0 0.0
2018-Apr-24 13:29N 37°08' W 008°32'0 0.0
2018-Apr-24 12:59N 37°08' W 008°32'0 0.0
2018-Apr-24 12:29N 37°08' W 008°32'0 0.0
2018-Apr-24 11:59N 37°08' W 008°32'0 0.0
2018-Apr-24 11:29N 37°08' W 008°32'0 0.0
2018-Apr-24 10:59N 37°08' W 008°32'0 0.0
2018-Apr-24 10:29N 37°08' W 008°32'0 0.0
2018-Apr-24 09:59N 37°08' W 008°32'0 0.0
2018-Apr-24 09:29N 37°08' W 008°32'0 0.0
2018-Apr-24 08:59N 37°08' W 008°32'0 0.0
2018-Apr-24 08:29N 37°08' W 008°32'0 0.0
2018-Apr-24 07:59N 37°08' W 008°32'0 0.1
2018-Apr-24 07:30N 37°08' W 008°32'2 3.8
2018-Apr-24 07:00N 37°06' W 008°32'4 9.0
2018-Apr-24 06:30N 37°01' W 008°33'3 6.6
2018-Apr-24 06:00N 36°58' W 008°34'3 7.0
2018-Apr-24 05:30N 36°55' W 008°35'4 8.7
2018-Apr-24 05:00N 36°50' W 008°35'5 8.9
2018-Apr-24 04:30N 36°46' W 008°36'  
2018-Apr-21 14:15N 29°03' W 013°16'313.9
2018-Apr-21 14:00N 29°02' W 013°19'714.0
2018-Apr-21 13:30N 28°59' W 013°27'4 1.3
2018-Apr-21 10:00N 28°58' W 013°32'0 0.0
2018-Apr-21 09:30N 28°58' W 013°32'0 0.0
2018-Apr-21 08:06N 28°58' W 013°32'0 0.0
2018-Apr-21 07:54N 28°58' W 013°32'0 0.0
2018-Apr-21 07:30N 28°58' W 013°32'0 0.0
2018-Apr-21 06:00N 28°58' W 013°32'0 0.1
2018-Apr-21 05:30N 28°58' W 013°32'1 2.5
2018-Apr-21 05:00N 28°57' W 013°32'5 8.9
2018-Apr-21 04:29N 28°54' W 013°36'611.8
2018-Apr-21 03:58N 28°50' W 013°42'612.3
2018-Apr-21 03:30N 28°48' W 013°48'811.9
2018-Apr-21 02:51N 28°48' W 013°57'411.2
2018-Apr-21 02:29N 28°47' W 014°01'3412.2
2018-Apr-20 23:43N 28°41' W 014°39'1313.3
2018-Apr-20 22:43N 28°40' W 014°54'313.3
2018-Apr-20 22:28N 28°40' W 014°58'613.0
2018-Apr-20 22:01N 28°39' W 015°05'612.7
2018-Apr-20 21:30N 28°38' W 015°12'612.7
2018-Apr-20 21:00N 28°38' W 015°19'612.7
2018-Apr-20 20:30N 28°37' W 015°27'612.9
2018-Apr-20 20:00N 28°35' W 015°34'612.8
2018-Apr-20 19:30N 28°34' W 015°41'611.4
2018-Apr-20 19:00N 28°30' W 015°45'611.1
2018-Apr-20 18:30N 28°26' W 015°50'611.2
2018-Apr-20 18:00N 28°22' W 015°54'611.2
2018-Apr-20 17:30N 28°19' W 015°59'713.0
2018-Apr-20 16:59N 28°23' W 016°05'713.9
2018-Apr-20 16:30N 28°27' W 016°11'3 5.5
2018-Apr-20 15:57N 28°28' W 016°14'0 0.0
2018-Apr-20 15:28N 28°28' W 016°14'0 0.0
2018-Apr-20 14:58N 28°28' W 016°14'0 0.0
2018-Apr-20 14:28N 28°28' W 016°14'0 0.0
2018-Apr-20 13:58N 28°28' W 016°14'0 0.0
2018-Apr-20 13:28N 28°28' W 016°14'0 0.0
2018-Apr-20 12:58N 28°28' W 016°14'0 0.0
2018-Apr-20 12:28N 28°28' W 016°14'0 0.0
2018-Apr-20 11:58N 28°28' W 016°14'0 0.0
2018-Apr-20 11:28N 28°28' W 016°14'0 0.0
2018-Apr-20 10:58N 28°28' W 016°14'0 0.0
2018-Apr-20 10:28N 28°28' W 016°14'0 0.0
2018-Apr-20 09:58N 28°28' W 016°14'0 0.0
2018-Apr-20 09:28N 28°28' W 016°14'0 0.0
2018-Apr-20 08:58N 28°28' W 016°14'0 0.0
2018-Apr-20 08:28N 28°28' W 016°14'0 0.0
2018-Apr-20 07:58N 28°28' W 016°14'0 0.0
2018-Apr-20 07:28N 28°28' W 016°14'0 0.0
2018-Apr-20 06:52N 28°28' W 016°14'0 0.3
2018-Apr-20 06:30N 28°28' W 016°14'2 3.9
2018-Apr-20 06:00N 28°28' W 016°12'3 6.3
2018-Apr-20 05:30N 28°29' W 016°09'3 6.4
2018-Apr-20 05:01N 28°31' W 016°06'  
Track history (hours):
 
Tides and Currents Weather Stations Pressure Air Temp Water Temp Dewpoint Dewpoint Depression Visibility Wind Speed Wind Dir Waves Ship Positions

Seabourn Spirit

Operator: Cunard Seabourn

Last reported at 2018-Apr-26 01:47 UTC. Time now 2018-Apr-26 19:10 UTC.
Position N 37°15' W 011°06'.

Length 133 m; draft 5.5 m.

Type: Ship. MMSI: 311083000.

Date/timePositionNaut miles runAvg speedWind from/ knotsBaromVisibWave heightAir tempDewpointWater temp
2018-Apr-26 01:47N 37°15' W 011°06'413.0
2018-Apr-26 01:31N 37°17' W 011°03'613.0
2018-Apr-26 01:01N 37°22' W 010°58'612.6
2018-Apr-26 00:31N 37°26' W 010°52'612.6
2018-Apr-26 00:00N 37°31' W 010°46'611.8
2018-Apr-25 23:30N 37°35' W 010°41'612.5
2018-Apr-25 23:00N 37°39' W 010°36'712.7
2018-Apr-25 22:28N 37°44' W 010°29'511.5
2018-Apr-25 22:00N 37°48' W 010°25'612.1
2018-Apr-25 21:31N 37°52' W 010°19'612.6
2018-Apr-25 21:00N 37°57' W 010°14'612.2
2018-Apr-25 20:31N 38°01' W 010°09'612.3
2018-Apr-25 20:01N 38°06' W 010°03'612.3
2018-Apr-25 19:30N 38°10' W 009°57'713.2
2018-Apr-25 19:00N 38°14' W 009°51'611.5
2018-Apr-25 18:30N 38°18' W 009°46'510.4
2018-Apr-25 18:00N 38°22' W 009°41'510.9
2018-Apr-25 17:31N 38°26' W 009°36'611.7
2018-Apr-25 17:01N 38°30' W 009°31'612.4
2018-Apr-25 16:30N 38°34' W 009°26'612.2
2018-Apr-25 16:00N 38°39' W 009°20'612.8
2018-Apr-25 15:30N 38°41' W 009°13'4 8.5
2018-Apr-25 14:59N 38°43' W 009°07'0 0.0
2018-Apr-25 14:29N 38°43' W 009°07'0 0.0
2018-Apr-25 13:59N 38°43' W 009°07'0 0.0
2018-Apr-25 13:29N 38°43' W 009°07'0 0.0
2018-Apr-25 12:55N 38°43' W 009°07'0 0.0
2018-Apr-25 12:29N 38°43' W 009°07'0 0.0
2018-Apr-25 11:59N 38°43' W 009°07'0 0.0
2018-Apr-25 11:29N 38°43' W 009°07'0 0.0
2018-Apr-25 10:58N 38°43' W 009°07'0 0.0
2018-Apr-25 10:29N 38°43' W 009°07'0 0.0
2018-Apr-25 09:59N 38°43' W 009°07'0 0.0
2018-Apr-25 09:28N 38°43' W 009°07'0 0.0
2018-Apr-25 08:58N 38°43' W 009°07'0 0.0
2018-Apr-25 08:29N 38°43' W 009°07'0 0.0
2018-Apr-25 07:59N 38°43' W 009°07'0 0.0
2018-Apr-25 07:29N 38°43' W 009°07'0 0.0
2018-Apr-25 06:59N 38°43' W 009°07'0 0.0
2018-Apr-25 06:28N 38°43' W 009°07'0 0.0
2018-Apr-25 05:59N 38°43' W 009°07'0 0.2
2018-Apr-25 05:30N 38°43' W 009°07'5 9.9
2018-Apr-25 05:00N 38°41' W 009°13'4 8.9
2018-Apr-25 04:30N 38°40' W 009°19'510.7
2018-Apr-25 04:00N 38°36' W 009°23'612.6
2018-Apr-25 03:30N 38°29' W 009°23'612.6
2018-Apr-25 03:00N 38°23' W 009°23'611.8
2018-Apr-25 02:30N 38°17' W 009°22'611.5
2018-Apr-25 02:00N 38°11' W 009°22'611.3
2018-Apr-25 01:30N 38°06' W 009°22'611.3
2018-Apr-25 01:00N 38°00' W 009°22'611.3
2018-Apr-25 00:30N 37°55' W 009°22'611.3
2018-Apr-25 00:00N 37°49' W 009°21'611.5
2018-Apr-24 23:30N 37°43' W 009°22'611.5
2018-Apr-24 23:01N 37°37' W 009°22'611.3
2018-Apr-24 22:31N 37°32' W 009°21'610.8
2018-Apr-24 22:00N 37°26' W 009°21'510.8
2018-Apr-24 21:30N 37°21' W 009°21'511.0
2018-Apr-24 21:00N 37°15' W 009°20'32 9.7
2018-Apr-24 17:42N 36°45' W 009°07'4 9.9
2018-Apr-24 17:17N 36°44' W 009°02'1710.8
2018-Apr-24 15:42N 36°54' W 008°45'711.8
2018-Apr-24 15:06N 36°59' W 008°38'111.9
2018-Apr-24 14:59N 37°00' W 008°37'511.5
2018-Apr-24 14:31N 37°04' W 008°32'4 6.7
2018-Apr-24 13:59N 37°08' W 008°32'0 0.0
2018-Apr-24 13:29N 37°08' W 008°32'0 0.0
2018-Apr-24 12:59N 37°08' W 008°32'0 0.0
2018-Apr-24 12:29N 37°08' W 008°32'0 0.0
2018-Apr-24 11:59N 37°08' W 008°32'0 0.0
2018-Apr-24 11:29N 37°08' W 008°32'0 0.0
2018-Apr-24 10:59N 37°08' W 008°32'0 0.0
2018-Apr-24 10:29N 37°08' W 008°32'0 0.0
2018-Apr-24 09:59N 37°08' W 008°32'0 0.0
2018-Apr-24 09:29N 37°08' W 008°32'0 0.0
2018-Apr-24 08:59N 37°08' W 008°32'0 0.0
2018-Apr-24 08:29N 37°08' W 008°32'0 0.0
2018-Apr-24 07:59N 37°08' W 008°32'0 0.1
2018-Apr-24 07:30N 37°08' W 008°32'2 3.8
2018-Apr-24 07:00N 37°06' W 008°32'4 9.0
2018-Apr-24 06:30N 37°01' W 008°33'3 6.6
2018-Apr-24 06:00N 36°58' W 008°34'3 7.0
2018-Apr-24 05:30N 36°55' W 008°35'4 8.7
2018-Apr-24 05:00N 36°50' W 008°35'5 8.9
2018-Apr-24 04:30N 36°46' W 008°36'  
2018-Apr-21 14:15N 29°03' W 013°16'313.9
2018-Apr-21 14:00N 29°02' W 013°19'714.0
2018-Apr-21 13:30N 28°59' W 013°27'4 1.3
2018-Apr-21 10:00N 28°58' W 013°32'0 0.0
2018-Apr-21 09:30N 28°58' W 013°32'0 0.0
2018-Apr-21 08:06N 28°58' W 013°32'0 0.0
2018-Apr-21 07:54N 28°58' W 013°32'0 0.0
2018-Apr-21 07:30N 28°58' W 013°32'0 0.0
2018-Apr-21 06:00N 28°58' W 013°32'0 0.1
2018-Apr-21 05:30N 28°58' W 013°32'1 2.5
2018-Apr-21 05:00N 28°57' W 013°32'5 8.9
2018-Apr-21 04:29N 28°54' W 013°36'611.8
2018-Apr-21 03:58N 28°50' W 013°42'612.3
2018-Apr-21 03:30N 28°48' W 013°48'811.9
2018-Apr-21 02:51N 28°48' W 013°57'411.2
2018-Apr-21 02:29N 28°47' W 014°01'3412.2
2018-Apr-20 23:43N 28°41' W 014°39'1313.3
2018-Apr-20 22:43N 28°40' W 014°54'313.3
2018-Apr-20 22:28N 28°40' W 014°58'613.0
2018-Apr-20 22:01N 28°39' W 015°05'612.7
2018-Apr-20 21:30N 28°38' W 015°12'612.7
2018-Apr-20 21:00N 28°38' W 015°19'612.7
2018-Apr-20 20:30N 28°37' W 015°27'612.9
2018-Apr-20 20:00N 28°35' W 015°34'612.8
2018-Apr-20 19:30N 28°34' W 015°41'611.4
2018-Apr-20 19:00N 28°30' W 015°45'611.1
2018-Apr-20 18:30N 28°26' W 015°50'611.2
2018-Apr-20 18:00N 28°22' W 015°54'611.2
2018-Apr-20 17:30N 28°19' W 015°59'713.0
2018-Apr-20 16:59N 28°23' W 016°05'713.9
2018-Apr-20 16:30N 28°27' W 016°11'3 5.5
2018-Apr-20 15:57N 28°28' W 016°14'0 0.0
2018-Apr-20 15:28N 28°28' W 016°14'0 0.0
2018-Apr-20 14:58N 28°28' W 016°14'0 0.0
2018-Apr-20 14:28N 28°28' W 016°14'0 0.0
2018-Apr-20 13:58N 28°28' W 016°14'0 0.0
2018-Apr-20 13:28N 28°28' W 016°14'0 0.0
2018-Apr-20 12:58N 28°28' W 016°14'0 0.0
2018-Apr-20 12:28N 28°28' W 016°14'0 0.0
2018-Apr-20 11:58N 28°28' W 016°14'0 0.0
2018-Apr-20 11:28N 28°28' W 016°14'0 0.0
2018-Apr-20 10:58N 28°28' W 016°14'0 0.0
2018-Apr-20 10:28N 28°28' W 016°14'0 0.0
2018-Apr-20 09:58N 28°28' W 016°14'0 0.0
2018-Apr-20 09:28N 28°28' W 016°14'0 0.0
2018-Apr-20 08:58N 28°28' W 016°14'0 0.0
2018-Apr-20 08:28N 28°28' W 016°14'0 0.0
2018-Apr-20 07:58N 28°28' W 016°14'0 0.0
2018-Apr-20 07:28N 28°28' W 016°14'0 0.0
2018-Apr-20 06:52N 28°28' W 016°14'0 0.3
2018-Apr-20 06:30N 28°28' W 016°14'2 3.9
2018-Apr-20 06:00N 28°28' W 016°12'3 6.3
2018-Apr-20 05:30N 28°29' W 016°09'3 6.4
2018-Apr-20 05:01N 28°31' W 016°06'  

Dump ship's entire track history